Time;durP1;ratioP1;P1;durP2;ratioP2;P2;SDS_P1;SDS_P2;PMS_P1;PMS_P2;Temp;Humidity;BMP_temperature;BMP_pressure;BME280_temperature;BME280_humidity;BME280_pressure;Samples;Min_cycle;Max_cycle;Signal;HPM_P1;HPM_P2
2021/12/09 18:27:45;;;;;;;38.33;12.75;;;;;;;1.52;78.13;97162.34;5326724;23;20054;-47
2021/12/09 18:30:23;;;;;;;34.67;10.07;;;;;;;1.53;78.07;97164.03;4866290;29;20482;-48
2021/12/09 18:32:49;;;;;;;15.13;5.80;;;;;;;1.56;77.58;97156.13;4865781;29;20040;-48
2021/12/09 18:35:14;;;;;;;23.17;10.23;;;;;;;1.40;78.04;97152.59;4860421;29;20030;-49
2021/12/09 18:37:50;;;;;;;18.52;8.23;;;;;;;1.35;78.34;97150.25;4848734;29;20029;-49
2021/12/09 18:40:16;;;;;;;20.73;9.75;;;;;;;1.26;79.36;97162.78;4867084;29;20081;-49
2021/12/09 18:42:41;;;;;;;16.15;5.32;;;;;;;1.26;78.83;97155.03;4866586;29;20029;-49
2021/12/09 18:45:09;;;;;;;13.00;4.40;;;;;;;1.19;78.94;97152.72;4866981;29;20397;-52
2021/12/09 18:47:34;;;;;;;10.80;3.95;;;;;;;1.17;78.82;97156.28;4868215;29;20033;-49
2021/12/09 18:50:00;;;;;;;10.68;4.20;;;;;;;1.23;79.43;97163.75;4867583;29;20032;-52
2021/12/09 18:52:25;;;;;;;11.45;4.38;;;;;;;1.11;79.33;97167.75;4860771;29;20025;-51
2021/12/09 18:54:51;;;;;;;10.68;4.05;;;;;;;0.97;81.20;97165.00;4848696;29;20034;-57
2021/12/09 18:57:16;;;;;;;11.57;4.32;;;;;;;0.93;81.32;97158.31;4849070;29;20034;-55
2021/12/09 18:59:42;;;;;;;12.00;4.50;;;;;;;1.06;81.88;97164.53;4848303;29;20512;-51
2021/12/09 19:02:07;;;;;;;17.23;5.38;;;;;;;1.15;82.43;97177.03;4849774;29;20588;-51
2021/12/09 19:04:33;;;;;;;15.25;5.43;;;;;;;1.09;82.26;97174.72;4848831;29;20030;-48
2021/12/09 19:06:58;;;;;;;12.05;4.70;;;;;;;1.00;82.01;97172.59;4848537;29;20486;-52
2021/12/09 19:09:24;;;;;;;9.55;4.13;;;;;;;1.07;81.80;97171.41;4850091;29;20040;-48
2021/12/09 19:11:49;;;;;;;11.32;4.40;;;;;;;1.10;82.07;97167.81;4849377;29;20056;-49
2021/12/09 19:14:17;;;;;;;11.13;4.60;;;;;;;1.00;82.97;97164.84;4848339;29;20121;-50
2021/12/09 19:16:46;;;;;;;13.68;5.05;;;;;;;1.08;82.90;97172.25;4849195;29;20037;-53
2021/12/09 19:19:15;;;;;;;14.20;5.35;;;;;;;1.13;82.57;97153.00;4851522;29;20459;-51
2021/12/09 19:21:41;;;;;;;13.38;5.57;;;;;;;1.09;82.44;97159.25;4862923;29;20030;-53
2021/12/09 19:24:07;;;;;;;13.52;5.78;;;;;;;1.21;82.40;97155.25;4848842;29;20428;-53
2021/12/09 19:26:32;;;;;;;65.53;26.38;;;;;;;1.27;82.13;97156.69;4848220;29;20033;-50
2021/12/09 19:29:00;;;;;;;31.85;14.63;;;;;;;1.34;81.52;97160.66;4850230;29;20261;-50
2021/12/09 19:31:26;;;;;;;22.23;10.30;;;;;;;1.36;82.14;97151.09;4858184;29;20037;-51
2021/12/09 19:33:52;;;;;;;14.90;7.28;;;;;;;1.32;82.13;97159.91;4875707;29;20032;-48
2021/12/09 19:36:22;;;;;;;21.45;8.35;;;;;;;1.34;81.63;97152.91;4862958;29;20033;-48
2021/12/09 19:38:49;;;;;;;19.33;9.23;;;;;;;1.22;82.67;97145.75;4862446;29;20048;-48
2021/12/09 19:41:15;;;;;;;24.65;10.23;;;;;;;1.43;81.74;97145.53;4861429;29;20117;-53
2021/12/09 19:43:40;;;;;;;25.08;11.48;;;;;;;1.45;81.48;97144.66;4844711;29;20042;-50
2021/12/09 19:46:07;;;;;;;27.45;12.30;;;;;;;1.56;81.44;97138.03;4846602;29;20034;-51
2021/12/09 19:48:32;;;;;;;29.80;12.13;;;;;;;1.34;82.40;97137.41;4846132;29;20109;-52
2021/12/09 19:51:00;;;;;;;28.67;10.70;;;;;;;1.28;82.34;97137.72;4844797;29;20086;-55
2021/12/09 19:53:26;;;;;;;27.67;10.88;;;;;;;1.25;82.51;97137.88;4857208;29;20490;-52
2021/12/09 19:55:52;;;;;;;21.13;9.32;;;;;;;0.97;82.54;97130.59;4863017;29;20076;-52
2021/12/09 19:58:18;;;;;;;18.95;9.43;;;;;;;1.24;82.68;97129.28;4862194;29;20375;-50
2021/12/09 20:00:43;;;;;;;24.73;9.85;;;;;;;1.17;82.66;97126.16;4862368;29;20037;-51
2021/12/09 20:03:08;;;;;;;21.58;9.57;;;;;;;1.15;82.08;97129.72;4858597;29;20061;-54
2021/12/09 20:05:34;;;;;;;20.13;8.10;;;;;;;1.09;82.38;97123.09;4864747;29;20046;-56
2021/12/09 20:08:00;;;;;;;19.33;8.27;;;;;;;1.07;82.63;97124.91;4861921;29;20029;-52
2021/12/09 20:10:29;;;;;;;19.95;7.93;;;;;;;1.18;82.25;97127.81;4862080;29;20028;-50
2021/12/09 20:12:55;;;;;;;27.35;10.82;;;;;;;1.11;82.52;97121.28;4861810;29;20025;-53
2021/12/09 20:15:20;;;;;;;19.67;8.75;;;;;;;1.14;82.64;97110.81;4853579;29;20037;-51
2021/12/09 20:17:46;;;;;;;17.52;6.68;;;;;;;1.11;82.51;97126.44;4846498;29;20501;-52
2021/12/09 20:20:13;;;;;;;16.65;7.10;;;;;;;1.15;82.33;97122.78;4856490;29;20401;-51
2021/12/09 20:22:38;;;;;;;16.77;6.55;;;;;;;1.28;81.69;97122.22;4860346;29;20037;-49
2021/12/09 20:25:05;;;;;;;17.08;6.45;;;;;;;1.37;81.87;97126.91;4856036;29;20378;-49
2021/12/09 20:27:30;;;;;;;15.20;6.25;;;;;;;1.32;81.68;97119.41;4850315;29;20026;-49
2021/12/09 20:29:55;;;;;;;17.02;5.75;;;;;;;1.50;81.63;97116.81;4862827;29;20055;-50
2021/12/09 20:32:21;;;;;;;15.07;5.93;;;;;;;1.52;80.78;97118.44;4862940;29;20123;-51
2021/12/09 20:34:46;;;;;;;13.93;6.43;;;;;;;1.12;82.28;97122.09;4860914;29;20386;-54
2021/12/09 20:37:12;;;;;;;14.40;6.32;;;;;;;1.46;81.82;97110.97;4856186;29;20402;-53
2021/12/09 20:39:38;;;;;;;14.63;6.15;;;;;;;1.43;81.59;97108.53;4855265;29;20034;-50
2021/12/09 20:42:05;;;;;;;19.15;6.35;;;;;;;1.38;81.67;97098.44;4863425;29;20402;-54
2021/12/09 20:44:30;;;;;;;15.18;6.28;;;;;;;1.22;82.05;97102.69;4862406;29;20028;-50
2021/12/09 20:46:55;;;;;;;15.77;6.57;;;;;;;1.35;81.75;97096.00;4862235;29;20029;-49
2021/12/09 20:49:21;;;;;;;15.18;6.53;;;;;;;1.42;81.66;97099.13;4862297;29;20537;-50
2021/12/09 20:51:46;;;;;;;17.70;6.68;;;;;;;1.28;82.34;97097.22;4844778;29;20037;-50
2021/12/09 20:54:12;;;;;;;16.25;6.63;;;;;;;1.37;81.48;97088.16;4841932;29;20034;-50
2021/12/09 20:56:37;;;;;;;15.13;6.75;;;;;;;1.27;81.77;97092.09;4843872;29;20448;-49
2021/12/09 20:59:02;;;;;;;17.98;7.00;;;;;;;1.30;82.15;97082.47;4843944;29;20034;-50
2021/12/09 21:01:28;;;;;;;18.40;6.85;;;;;;;1.28;82.33;97091.22;4844472;29;20030;-52
2021/12/09 21:03:53;;;;;;;20.55;6.75;;;;;;;1.33;82.29;97081.47;4843301;29;20034;-51
2021/12/09 21:06:19;;;;;;;17.05;6.45;;;;;;;1.41;81.08;97084.50;4857638;29;20482;-50
2021/12/09 21:08:45;;;;;;;17.92;6.78;;;;;;;1.19;82.39;97080.41;4857056;29;20026;-51
2021/12/09 21:11:10;;;;;;;33.78;11.45;;;;;;;1.18;82.41;97083.91;4844895;29;20483;-52
2021/12/09 21:13:36;;;;;;;51.45;12.93;;;;;;;1.04;83.41;97082.91;4860975;29;20036;-53
2021/12/09 21:16:07;;;;;;;44.45;13.38;;;;;;;1.03;83.10;97073.47;4862026;29;20056;-50
2021/12/09 21:18:34;;;;;;;19.50;7.70;;;;;;;1.16;82.94;97088.28;4861830;29;20022;-52
2021/12/09 21:20:59;;;;;;;181.15;39.45;;;;;;;1.41;81.91;97079.34;4860545;29;20033;-54
2021/12/09 21:23:26;;;;;;;25.58;8.75;;;;;;;1.43;81.36;97074.94;4861054;29;20080;-52
2021/12/09 21:25:52;;;;;;;18.80;6.43;;;;;;;1.26;82.00;97072.34;4861594;29;20470;-50
2021/12/09 21:28:19;;;;;;;19.60;7.13;;;;;;;1.34;82.10;97075.38;4861614;29;20032;-51
2021/12/09 21:30:46;;;;;;;24.00;10.57;;;;;;;1.32;82.04;97075.47;4861544;29;20375;-52
2021/12/09 21:33:11;;;;;;;20.25;7.85;;;;;;;1.51;81.55;97071.97;4860546;29;20037;-50
2021/12/09 21:35:37;;;;;;;15.45;6.20;;;;;;;1.07;82.87;97060.34;4861319;29;20044;-53
2021/12/09 21:38:04;;;;;;;17.95;6.50;;;;;;;1.30;82.54;97069.53;4861205;29;20029;-49
2021/12/09 21:40:34;;;;;;;18.55;6.85;;;;;;;1.40;81.84;97055.25;4861455;29;20037;-53
2021/12/09 21:43:00;;;;;;;13.50;6.07;;;;;;;1.45;81.60;97052.47;4861321;29;20025;-52
2021/12/09 21:45:28;;;;;;;16.05;6.53;;;;;;;1.29;82.01;97046.38;4861400;29;20025;-52
2021/12/09 21:47:53;;;;;;;15.60;7.03;;;;;;;1.09;82.54;97037.03;4861457;29;20100;-50
2021/12/09 21:50:18;;;;;;;22.40;8.20;;;;;;;1.27;82.22;97054.19;4861485;29;20113;-49
2021/12/09 21:52:44;;;;;;;15.02;6.82;;;;;;;1.35;82.05;97043.50;4860603;29;20029;-52
2021/12/09 21:55:09;;;;;;;15.75;6.63;;;;;;;1.35;82.00;97046.91;4860389;29;20025;-53
2021/12/09 21:57:35;;;;;;;20.42;6.70;;;;;;;1.22;82.54;97050.19;4872142;29;20050;-53
2021/12/09 22:00:01;;;;;;;14.05;6.57;;;;;;;1.36;82.02;97047.75;4842750;29;20033;-52
